Mersa Matruh, Egypt
Current Conditions -  °F | °C
As of 2:00 PM on Monday 24 Nov 2014 (Local Time) from HEMM Reporting Station
Scattered Clouds Scattered Clouds  
Wind Chill: 19°   Ceiling: Unl
Heat Index: 19°   Visibility: 6mi
Dew Point: 12°   Wind: 21mph
Humidity: 64%   Direction: 360°N
Pressure: 30"   Gusts: NA
Location:  31.32°N, 27.22°E
Report Text: HEMM 241200Z 36018KT 9999 FEW020 SCT022 19/12 Q1016 NOSIG
Loading
Personal Weather Stations






























Interactive Weather Map New forecast layout! Learn more

10-Day Weather Forecast

Advertisements
Track Severe Weather on mobile